sensor_id;sensor_type;location;lat;lon;timestamp;temperature;humidity
72380;SHT30;60354;47.798;12.472;2023-04-21T00:02:23;7.29;89.89
72380;SHT30;60354;47.798;12.472;2023-04-21T00:04:49;7.29;89.68
72380;SHT30;60354;47.798;12.472;2023-04-21T00:07:16;7.29;89.33
72380;SHT30;60354;47.798;12.472;2023-04-21T00:09:41;7.27;89.36
72380;SHT30;60354;47.798;12.472;2023-04-21T00:12:07;7.30;89.34
72380;SHT30;60354;47.798;12.472;2023-04-21T00:14:33;7.16;89.56
72380;SHT30;60354;47.798;12.472;2023-04-21T00:16:58;7.16;89.56
72380;SHT30;60354;47.798;12.472;2023-04-21T00:19:24;7.16;89.25
72380;SHT30;60354;47.798;12.472;2023-04-21T00:21:50;7.16;89.14
72380;SHT30;60354;47.798;12.472;2023-04-21T00:24:16;7.12;89.53
72380;SHT30;60354;47.798;12.472;2023-04-21T00:26:41;7.03;89.36
72380;SHT30;60354;47.798;12.472;2023-04-21T00:29:07;6.91;89.97
72380;SHT30;60354;47.798;12.472;2023-04-21T00:31:33;6.88;90.80
72380;SHT30;60354;47.798;12.472;2023-04-21T00:33:58;6.93;89.88
72380;SHT30;60354;47.798;12.472;2023-04-21T00:36:24;7.02;89.55
72380;SHT30;60354;47.798;12.472;2023-04-21T00:38:52;7.05;89.44
72380;SHT30;60354;47.798;12.472;2023-04-21T00:41:18;7.03;89.41
72380;SHT30;60354;47.798;12.472;2023-04-21T00:44:03;6.93;90.23
72380;SHT30;60354;47.798;12.472;2023-04-21T00:46:31;6.96;89.62
72380;SHT30;60354;47.798;12.472;2023-04-21T00:48:58;6.98;89.32
72380;SHT30;60354;47.798;12.472;2023-04-21T00:51:26;6.82;89.92
72380;SHT30;60354;47.798;12.472;2023-04-21T00:53:53;6.65;90.58
72380;SHT30;60354;47.798;12.472;2023-04-21T00:56:20;6.60;90.58
72380;SHT30;60354;47.798;12.472;2023-04-21T00:58:47;6.58;90.20
72380;SHT30;60354;47.798;12.472;2023-04-21T01:01:13;6.60;90.01
72380;SHT30;60354;47.798;12.472;2023-04-21T01:03:41;6.65;89.65
72380;SHT30;60354;47.798;12.472;2023-04-21T01:06:08;6.47;90.61
72380;SHT30;60354;47.798;12.472;2023-04-21T01:08:35;6.30;91.15
72380;SHT30;60354;47.798;12.472;2023-04-21T01:11:08;6.31;91.13
72380;SHT30;60354;47.798;12.472;2023-04-21T01:13:34;6.34;90.26
72380;SHT30;60354;47.798;12.472;2023-04-21T01:16:00;6.38;90.14
72380;SHT30;60354;47.798;12.472;2023-04-21T01:18:25;6.38;90.89
72380;SHT30;60354;47.798;12.472;2023-04-21T01:20:51;6.38;90.39
72380;SHT30;60354;47.798;12.472;2023-04-21T01:23:17;6.43;89.84
72380;SHT30;60354;47.798;12.472;2023-04-21T01:25:43;6.50;89.63
72380;SHT30;60354;47.798;12.472;2023-04-21T01:28:08;6.50;89.15
72380;SHT30;60354;47.798;12.472;2023-04-21T01:30:34;6.38;90.30
72380;SHT30;60354;47.798;12.472;2023-04-21T01:32:59;6.24;90.92
72380;SHT30;60354;47.798;12.472;2023-04-21T01:35:25;5.90;92.45
72380;SHT30;60354;47.798;12.472;2023-04-21T01:37:50;5.82;93.85
72380;SHT30;60354;47.798;12.472;2023-04-21T01:40:18;5.83;93.36
72380;SHT30;60354;47.798;12.472;2023-04-21T01:42:44;5.89;92.74
72380;SHT30;60354;47.798;12.472;2023-04-21T01:45:10;5.99;91.69
72380;SHT30;60354;47.798;12.472;2023-04-21T01:47:36;6.06;92.36
72380;SHT30;60354;47.798;12.472;2023-04-21T01:50:02;6.10;91.60
72380;SHT30;60354;47.798;12.472;2023-04-21T01:52:28;6.10;90.46
72380;SHT30;60354;47.798;12.472;2023-04-21T01:54:54;6.17;90.42
72380;SHT30;60354;47.798;12.472;2023-04-21T01:57:19;6.16;89.97
72380;SHT30;60354;47.798;12.472;2023-04-21T01:59:45;6.19;90.51
72380;SHT30;60354;47.798;12.472;2023-04-21T02:02:11;6.14;90.41
72380;SHT30;60354;47.798;12.472;2023-04-21T02:04:36;6.10;91.40
72380;SHT30;60354;47.798;12.472;2023-04-21T02:07:02;6.00;91.41
72380;SHT30;60354;47.798;12.472;2023-04-21T02:09:28;5.93;91.96
72380;SHT30;60354;47.798;12.472;2023-04-21T02:11:56;5.92;92.01
72380;SHT30;60354;47.798;12.472;2023-04-21T02:14:23;5.89;91.46
72380;SHT30;60354;47.798;12.472;2023-04-21T02:16:49;5.92;90.23
72380;SHT30;60354;47.798;12.472;2023-04-21T02:19:14;5.90;90.84
72380;SHT30;60354;47.798;12.472;2023-04-21T02:21:40;5.85;90.37
72380;SHT30;60354;47.798;12.472;2023-04-21T02:24:06;5.95;89.46
72380;SHT30;60354;47.798;12.472;2023-04-21T02:26:31;6.00;89.29
72380;SHT30;60354;47.798;12.472;2023-04-21T02:28:59;5.95;88.45
72380;SHT30;60354;47.798;12.472;2023-04-21T02:31:24;5.85;90.53
72380;SHT30;60354;47.798;12.472;2023-04-21T02:33:50;5.79;89.93
72380;SHT30;60354;47.798;12.472;2023-04-21T02:36:15;5.82;89.79
72380;SHT30;60354;47.798;12.472;2023-04-21T02:38:41;5.72;89.45
72380;SHT30;60354;47.798;12.472;2023-04-21T02:41:08;5.76;90.80
72380;SHT30;60354;47.798;12.472;2023-04-21T02:43:34;5.78;90.10
72380;SHT30;60354;47.798;12.472;2023-04-21T02:46:05;5.62;89.24
72380;SHT30;60354;47.798;12.472;2023-04-21T02:48:33;5.55;89.39
72380;SHT30;60354;47.798;12.472;2023-04-21T02:50:58;5.54;89.90
72380;SHT30;60354;47.798;12.472;2023-04-21T02:53:24;5.52;90.73
72380;SHT30;60354;47.798;12.472;2023-04-21T02:55:51;5.51;90.26
72380;SHT30;60354;47.798;12.472;2023-04-21T02:58:16;5.59;90.07
72380;SHT30;60354;47.798;12.472;2023-04-21T03:00:42;5.75;89.80
72380;SHT30;60354;47.798;12.472;2023-04-21T03:03:08;5.69;89.71
72380;SHT30;60354;47.798;12.472;2023-04-21T03:05:34;5.71;90.24
72380;SHT30;60354;47.798;12.472;2023-04-21T03:07:59;5.73;90.33
72380;SHT30;60354;47.798;12.472;2023-04-21T03:10:25;5.66;90.61
72380;SHT30;60354;47.798;12.472;2023-04-21T03:12:54;5.69;91.66
72380;SHT30;60354;47.798;12.472;2023-04-21T03:15:20;5.71;91.05
72380;SHT30;60354;47.798;12.472;2023-04-21T03:17:47;5.73;90.79
72380;SHT30;60354;47.798;12.472;2023-04-21T03:20:12;5.73;90.92
72380;SHT30;60354;47.798;12.472;2023-04-21T03:22:38;5.79;90.99
72380;SHT30;60354;47.798;12.472;2023-04-21T03:25:04;5.81;91.25
72380;SHT30;60354;47.798;12.472;2023-04-21T03:27:31;5.83;90.75
72380;SHT30;60354;47.798;12.472;2023-04-21T03:29:58;5.82;91.67
72380;SHT30;60354;47.798;12.472;2023-04-21T03:32:23;5.79;91.74
72380;SHT30;60354;47.798;12.472;2023-04-21T03:34:49;5.76;90.99
72380;SHT30;60354;47.798;12.472;2023-04-21T03:37:16;5.78;91.13
72380;SHT30;60354;47.798;12.472;2023-04-21T03:39:42;5.68;91.28
72380;SHT30;60354;47.798;12.472;2023-04-21T03:42:08;5.76;91.17
72380;SHT30;60354;47.798;12.472;2023-04-21T03:44:33;5.79;90.88
72380;SHT30;60354;47.798;12.472;2023-04-21T03:47:00;5.85;91.05
72380;SHT30;60354;47.798;12.472;2023-04-21T03:49:27;5.85;91.40
72380;SHT30;60354;47.798;12.472;2023-04-21T03:51:53;5.82;91.15
72380;SHT30;60354;47.798;12.472;2023-04-21T03:54:19;5.88;91.20
72380;SHT30;60354;47.798;12.472;2023-04-21T03:56:44;5.88;91.18
72380;SHT30;60354;47.798;12.472;2023-04-21T03:59:10;5.85;91.86
72380;SHT30;60354;47.798;12.472;2023-04-21T04:01:35;5.86;91.59
72380;SHT30;60354;47.798;12.472;2023-04-21T04:04:01;5.88;92.15
72380;SHT30;60354;47.798;12.472;2023-04-21T04:06:26;5.83;91.87
72380;SHT30;60354;47.798;12.472;2023-04-21T04:08:52;5.79;91.70
72380;SHT30;60354;47.798;12.472;2023-04-21T04:11:18;5.68;92.49
72380;SHT30;60354;47.798;12.472;2023-04-21T04:13:43;5.69;92.23
72380;SHT30;60354;47.798;12.472;2023-04-21T04:16:09;5.71;92.49
72380;SHT30;60354;47.798;12.472;2023-04-21T04:18:34;5.63;93.00
72380;SHT30;60354;47.798;12.472;2023-04-21T04:21:06;5.66;92.88
72380;SHT30;60354;47.798;12.472;2023-04-21T04:23:32;5.75;92.49
72380;SHT30;60354;47.798;12.472;2023-04-21T04:25:58;5.79;92.07
72380;SHT30;60354;47.798;12.472;2023-04-21T04:28:23;5.82;91.84
72380;SHT30;60354;47.798;12.472;2023-04-21T04:30:49;5.88;92.22
72380;SHT30;60354;47.798;12.472;2023-04-21T04:33:14;5.73;92.97
72380;SHT30;60354;47.798;12.472;2023-04-21T04:35:40;5.51;92.83
72380;SHT30;60354;47.798;12.472;2023-04-21T04:38:05;5.55;93.77
72380;SHT30;60354;47.798;12.472;2023-04-21T04:40:32;5.54;93.16
72380;SHT30;60354;47.798;12.472;2023-04-21T04:42:58;5.59;92.94
72380;SHT30;60354;47.798;12.472;2023-04-21T04:45:25;5.63;92.77
72380;SHT30;60354;47.798;12.472;2023-04-21T04:47:51;5.62;93.25
72380;SHT30;60354;47.798;12.472;2023-04-21T04:50:16;5.66;93.60
72380;SHT30;60354;47.798;12.472;2023-04-21T04:52:42;5.66;94.15
72380;SHT30;60354;47.798;12.472;2023-04-21T04:55:11;5.72;93.34
72380;SHT30;60354;47.798;12.472;2023-04-21T04:57:36;5.75;93.31
72380;SHT30;60354;47.798;12.472;2023-04-21T05:00:03;5.75;92.69
72380;SHT30;60354;47.798;12.472;2023-04-21T05:02:31;5.79;92.90
72380;SHT30;60354;47.798;12.472;2023-04-21T05:04:56;5.83;92.73
72380;SHT30;60354;47.798;12.472;2023-04-21T05:07:22;5.76;92.80
72380;SHT30;60354;47.798;12.472;2023-04-21T05:09:47;5.73;92.45
72380;SHT30;60354;47.798;12.472;2023-04-21T05:12:13;5.73;92.74
72380;SHT30;60354;47.798;12.472;2023-04-21T05:14:38;5.79;92.71
72380;SHT30;60354;47.798;12.472;2023-04-21T05:17:04;5.88;92.21
72380;SHT30;60354;47.798;12.472;2023-04-21T05:19:29;5.93;92.40
72380;SHT30;60354;47.798;12.472;2023-04-21T05:21:58;5.95;92.48
72380;SHT30;60354;47.798;12.472;2023-04-21T05:24:25;5.96;92.36
72380;SHT30;60354;47.798;12.472;2023-04-21T05:26:50;5.93;92.54
72380;SHT30;60354;47.798;12.472;2023-04-21T05:29:16;5.86;92.94
72380;SHT30;60354;47.798;12.472;2023-04-21T05:31:41;5.85;93.17
72380;SHT30;60354;47.798;12.472;2023-04-21T05:34:07;5.83;93.26
72380;SHT30;60354;47.798;12.472;2023-04-21T05:36:32;5.83;93.16
72380;SHT30;60354;47.798;12.472;2023-04-21T05:38:58;5.90;92.82
72380;SHT30;60354;47.798;12.472;2023-04-21T05:41:23;5.95;93.33
72380;SHT30;60354;47.798;12.472;2023-04-21T05:43:50;6.00;93.12
72380;SHT30;60354;47.798;12.472;2023-04-21T05:46:16;6.14;93.49
72380;SHT30;60354;47.798;12.472;2023-04-21T05:48:41;6.12;93.69
72380;SHT30;60354;47.798;12.472;2023-04-21T05:51:11;6.24;93.30
72380;SHT30;60354;47.798;12.472;2023-04-21T05:53:38;6.37;93.10
72380;SHT30;60354;47.798;12.472;2023-04-21T05:56:04;6.41;92.65
72380;SHT30;60354;47.798;12.472;2023-04-21T05:58:30;6.43;93.22
72380;SHT30;60354;47.798;12.472;2023-04-21T06:00:56;6.38;92.98
72380;SHT30;60354;47.798;12.472;2023-04-21T06:03:21;6.34;93.38
72380;SHT30;60354;47.798;12.472;2023-04-21T06:05:46;6.44;93.29
72380;SHT30;60354;47.798;12.472;2023-04-21T06:08:12;6.55;93.11
72380;SHT30;60354;47.798;12.472;2023-04-21T06:10:37;6.71;92.44
72380;SHT30;60354;47.798;12.472;2023-04-21T06:13:03;6.81;92.10
72380;SHT30;60354;47.798;12.472;2023-04-21T06:15:28;6.80;91.93
72380;SHT30;60354;47.798;12.472;2023-04-21T06:17:54;6.81;91.43
72380;SHT30;60354;47.798;12.472;2023-04-21T06:20:20;6.93;91.13
72380;SHT30;60354;47.798;12.472;2023-04-21T06:22:45;7.09;91.03
72380;SHT30;60354;47.798;12.472;2023-04-21T06:25:14;7.18;90.12
72380;SHT30;60354;47.798;12.472;2023-04-21T06:27:39;7.23;90.01
72380;SHT30;60354;47.798;12.472;2023-04-21T06:30:06;7.36;90.02
72380;SHT30;60354;47.798;12.472;2023-04-21T06:32:31;7.44;89.95
72380;SHT30;60354;47.798;12.472;2023-04-21T06:34:57;7.40;89.84
72380;SHT30;60354;47.798;12.472;2023-04-21T06:37:22;7.42;89.79
72380;SHT30;60354;47.798;12.472;2023-04-21T06:39:48;7.42;90.09
72380;SHT30;60354;47.798;12.472;2023-04-21T06:42:13;7.57;90.01
72380;SHT30;60354;47.798;12.472;2023-04-21T06:44:41;7.62;89.51
72380;SHT30;60354;47.798;12.472;2023-04-21T06:47:06;7.63;89.22
72380;SHT30;60354;47.798;12.472;2023-04-21T06:49:32;7.57;89.72
72380;SHT30;60354;47.798;12.472;2023-04-21T06:51:58;7.66;89.80
72380;SHT30;60354;47.798;12.472;2023-04-21T06:54:24;7.70;89.94
72380;SHT30;60354;47.798;12.472;2023-04-21T06:56:49;7.69;90.05
72380;SHT30;60354;47.798;12.472;2023-04-21T06:59:15;7.77;89.52
72380;SHT30;60354;47.798;12.472;2023-04-21T07:01:41;7.83;88.94
72380;SHT30;60354;47.798;12.472;2023-04-21T07:04:06;7.81;89.25
72380;SHT30;60354;47.798;12.472;2023-04-21T07:06:32;7.91;88.55
72380;SHT30;60354;47.798;12.472;2023-04-21T07:08:57;8.12;88.54
72380;SHT30;60354;47.798;12.472;2023-04-21T07:11:23;7.98;88.71
72380;SHT30;60354;47.798;12.472;2023-04-21T07:13:48;8.36;88.61
72380;SHT30;60354;47.798;12.472;2023-04-21T07:16:14;8.84;86.75
72380;SHT30;60354;47.798;12.472;2023-04-21T07:18:39;9.28;86.07
72380;SHT30;60354;47.798;12.472;2023-04-21T07:21:06;9.65;83.17
72380;SHT30;60354;47.798;12.472;2023-04-21T07:23:32;9.83;81.39
72380;SHT30;60354;47.798;12.472;2023-04-21T07:25:58;10.17;80.19
72380;SHT30;60354;47.798;12.472;2023-04-21T07:28:23;10.48;80.03
72380;SHT30;60354;47.798;12.472;2023-04-21T07:30:49;10.82;78.63
72380;SHT30;60354;47.798;12.472;2023-04-21T07:33:14;10.85;78.54
72380;SHT30;60354;47.798;12.472;2023-04-21T07:35:40;11.01;79.09
72380;SHT30;60354;47.798;12.472;2023-04-21T07:38:06;10.98;78.63
72380;SHT30;60354;47.798;12.472;2023-04-21T07:40:31;11.09;78.52
72380;SHT30;60354;47.798;12.472;2023-04-21T07:42:57;11.08;77.69
72380;SHT30;60354;47.798;12.472;2023-04-21T07:45:23;10.91;77.50
72380;SHT30;60354;47.798;12.472;2023-04-21T07:47:49;10.72;78.91
72380;SHT30;60354;47.798;12.472;2023-04-21T07:50:14;10.43;80.98
72380;SHT30;60354;47.798;12.472;2023-04-21T07:52:40;10.30;81.74
72380;SHT30;60354;47.798;12.472;2023-04-21T07:55:06;10.17;82.16
72380;SHT30;60354;47.798;12.472;2023-04-21T07:57:31;10.37;81.86
72380;SHT30;60354;47.798;12.472;2023-04-21T07:59:59;10.37;80.94
72380;SHT30;60354;47.798;12.472;2023-04-21T08:02:24;10.74;79.99
72380;SHT30;60354;47.798;12.472;2023-04-21T08:04:49;10.68;79.52
72380;SHT30;60354;47.798;12.472;2023-04-21T08:07:18;10.55;80.03
72380;SHT30;60354;47.798;12.472;2023-04-21T08:09:44;10.36;80.97
72380;SHT30;60354;47.798;12.472;2023-04-21T08:12:09;10.44;81.19
72380;SHT30;60354;47.798;12.472;2023-04-21T08:14:35;10.36;80.78
72380;SHT30;60354;47.798;12.472;2023-04-21T08:17:00;10.61;80.64
72380;SHT30;60354;47.798;12.472;2023-04-21T08:19:26;11.06;78.82
72380;SHT30;60354;47.798;12.472;2023-04-21T08:21:51;11.14;78.31
72380;SHT30;60354;47.798;12.472;2023-04-21T08:24:17;11.52;76.66
72380;SHT30;60354;47.798;12.472;2023-04-21T08:26:42;12.10;76.27
72380;SHT30;60354;47.798;12.472;2023-04-21T08:29:09;12.22;74.68
72380;SHT30;60354;47.798;12.472;2023-04-21T08:31:35;12.34;74.93
72380;SHT30;60354;47.798;12.472;2023-04-21T08:34:00;13.16;73.08
72380;SHT30;60354;47.798;12.472;2023-04-21T08:36:26;13.54;72.70
72380;SHT30;60354;47.798;12.472;2023-04-21T08:38:52;13.27;71.48
72380;SHT30;60354;47.798;12.472;2023-04-21T08:41:18;13.48;71.81
72380;SHT30;60354;47.798;12.472;2023-04-21T08:43:43;12.62;72.95
72380;SHT30;60354;47.798;12.472;2023-04-21T08:46:10;12.86;73.53
72380;SHT30;60354;47.798;12.472;2023-04-21T08:48:37;12.25;75.70
72380;SHT30;60354;47.798;12.472;2023-04-21T08:51:05;12.35;75.75
72380;SHT30;60354;47.798;12.472;2023-04-21T08:53:31;11.97;76.62
72380;SHT30;60354;47.798;12.472;2023-04-21T08:55:56;12.14;76.84
72380;SHT30;60354;47.798;12.472;2023-04-21T08:58:22;11.81;77.33
72380;SHT30;60354;47.798;12.472;2023-04-21T09:00:48;11.57;77.87
72380;SHT30;60354;47.798;12.472;2023-04-21T09:03:20;11.94;77.84
72380;SHT30;60354;47.798;12.472;2023-04-21T09:05:56;12.28;76.44
72380;SHT30;60354;47.798;12.472;2023-04-21T09:08:22;12.77;75.89
72380;SHT30;60354;47.798;12.472;2023-04-21T09:10:50;12.83;74.99
72380;SHT30;60354;47.798;12.472;2023-04-21T09:13:17;13.16;74.50
72380;SHT30;60354;47.798;12.472;2023-04-21T09:15:50;12.90;74.42
72380;SHT30;60354;47.798;12.472;2023-04-21T09:18:18;13.38;74.21
72380;SHT30;60354;47.798;12.472;2023-04-21T09:20:46;13.45;72.82
72380;SHT30;60354;47.798;12.472;2023-04-21T09:23:12;13.57;73.40
72380;SHT30;60354;47.798;12.472;2023-04-21T09:25:39;13.31;74.34
72380;SHT30;60354;47.798;12.472;2023-04-21T09:28:12;12.96;74.75
72380;SHT30;60354;47.798;12.472;2023-04-21T09:30:38;13.00;74.91
72380;SHT30;60354;47.798;12.472;2023-04-21T09:33:04;12.90;73.84
72380;SHT30;60354;47.798;12.472;2023-04-21T09:35:36;12.49;77.12
72380;SHT30;60354;47.798;12.472;2023-04-21T09:38:09;12.53;76.44
72380;SHT30;60354;47.798;12.472;2023-04-21T09:40:35;12.73;75.17
72380;SHT30;60354;47.798;12.472;2023-04-21T09:43:00;12.59;75.95
72380;SHT30;60354;47.798;12.472;2023-04-21T09:45:27;12.57;76.53
72380;SHT30;60354;47.798;12.472;2023-04-21T09:47:57;12.42;76.45
72380;SHT30;60354;47.798;12.472;2023-04-21T09:50:25;12.73;74.87
72380;SHT30;60354;47.798;12.472;2023-04-21T09:52:52;12.25;77.14
72380;SHT30;60354;47.798;12.472;2023-04-21T09:55:21;12.28;75.37
72380;SHT30;60354;47.798;12.472;2023-04-21T09:57:47;12.69;75.74
72380;SHT30;60354;47.798;12.472;2023-04-21T10:00:14;12.57;75.67
72380;SHT30;60354;47.798;12.472;2023-04-21T10:02:46;12.85;75.17
72380;SHT30;60354;47.798;12.472;2023-04-21T10:05:12;13.02;75.31
72380;SHT30;60354;47.798;12.472;2023-04-21T10:07:38;13.26;74.83
72380;SHT30;60354;47.798;12.472;2023-04-21T10:10:06;13.16;74.36
72380;SHT30;60354;47.798;12.472;2023-04-21T10:12:32;13.18;75.08
72380;SHT30;60354;47.798;12.472;2023-04-21T10:15:03;13.57;72.84
72380;SHT30;60354;47.798;12.472;2023-04-21T10:17:33;13.45;74.06
72380;SHT30;60354;47.798;12.472;2023-04-21T10:20:05;13.71;73.43
72380;SHT30;60354;47.798;12.472;2023-04-21T10:22:32;13.75;73.07
72380;SHT30;60354;47.798;12.472;2023-04-21T10:25:04;13.71;73.41
72380;SHT30;60354;47.798;12.472;2023-04-21T10:27:34;14.08;71.92
72380;SHT30;60354;47.798;12.472;2023-04-21T10:30:06;14.36;70.70
72380;SHT30;60354;47.798;12.472;2023-04-21T10:32:42;14.38;72.43
72380;SHT30;60354;47.798;12.472;2023-04-21T10:35:09;14.74;71.70
72380;SHT30;60354;47.798;12.472;2023-04-21T10:37:34;14.59;70.68
72380;SHT30;60354;47.798;12.472;2023-04-21T10:40:00;14.40;71.16
72380;SHT30;60354;47.798;12.472;2023-04-21T10:42:27;14.59;71.61
72380;SHT30;60354;47.798;12.472;2023-04-21T10:47:28;15.14;69.84
72380;SHT30;60354;47.798;12.472;2023-04-21T10:49:56;15.08;68.74
72380;SHT30;60354;47.798;12.472;2023-04-21T10:52:30;15.24;68.69
72380;SHT30;60354;47.798;12.472;2023-04-21T10:57:33;15.59;68.33
72380;SHT30;60354;47.798;12.472;2023-04-21T10:59:59;15.63;67.66
72380;SHT30;60354;47.798;12.472;2023-04-21T11:02:25;15.57;67.98
72380;SHT30;60354;47.798;12.472;2023-04-21T11:04:52;15.83;67.27
72380;SHT30;60354;47.798;12.472;2023-04-21T11:07:22;15.79;67.23
72380;SHT30;60354;47.798;12.472;2023-04-21T11:09:56;15.73;67.22
72380;SHT30;60354;47.798;12.472;2023-04-21T11:12:26;15.70;67.84
72380;SHT30;60354;47.798;12.472;2023-04-21T11:14:52;16.00;66.21
72380;SHT30;60354;47.798;12.472;2023-04-21T11:17:18;15.91;66.79
72380;SHT30;60354;47.798;12.472;2023-04-21T11:19:49;15.98;66.34
72380;SHT30;60354;47.798;12.472;2023-04-21T11:22:16;16.21;66.47
72380;SHT30;60354;47.798;12.472;2023-04-21T11:24:46;16.49;64.58
72380;SHT30;60354;47.798;12.472;2023-04-21T11:27:12;16.58;65.11
72380;SHT30;60354;47.798;12.472;2023-04-21T11:29:44;16.75;63.33
72380;SHT30;60354;47.798;12.472;2023-04-21T11:32:11;17.02;63.89
72380;SHT30;60354;47.798;12.472;2023-04-21T11:34:37;16.73;64.75
72380;SHT30;60354;47.798;12.472;2023-04-21T11:37:03;16.75;63.07
72380;SHT30;60354;47.798;12.472;2023-04-21T11:39:28;16.51;60.86
72380;SHT30;60354;47.798;12.472;2023-04-21T11:41:54;16.72;60.91
72380;SHT30;60354;47.798;12.472;2023-04-21T11:44:41;16.97;61.35
72380;SHT30;60354;47.798;12.472;2023-04-21T11:47:22;17.00;62.07
72380;SHT30;60354;47.798;12.472;2023-04-21T11:49:53;17.24;61.17
72380;SHT30;60354;47.798;12.472;2023-04-21T11:52:25;17.09;60.02
72380;SHT30;60354;47.798;12.472;2023-04-21T11:54:58;17.03;60.21
72380;SHT30;60354;47.798;12.472;2023-04-21T11:57:25;17.16;60.85
72380;SHT30;60354;47.798;12.472;2023-04-21T11:59:51;17.05;61.50
72380;SHT30;60354;47.798;12.472;2023-04-21T12:02:23;17.37;59.33
72380;SHT30;60354;47.798;12.472;2023-04-21T12:05:02;17.37;59.85
72380;SHT30;60354;47.798;12.472;2023-04-21T12:07:29;17.51;58.64
72380;SHT30;60354;47.798;12.472;2023-04-21T12:09:55;17.15;60.18
72380;SHT30;60354;47.798;12.472;2023-04-21T12:12:21;17.48;60.92
72380;SHT30;60354;47.798;12.472;2023-04-21T12:14:49;17.43;60.22
72380;SHT30;60354;47.798;12.472;2023-04-21T12:17:15;17.30;58.19
72380;SHT30;60354;47.798;12.472;2023-04-21T12:19:41;17.24;58.50
72380;SHT30;60354;47.798;12.472;2023-04-21T12:22:08;17.43;58.80
72380;SHT30;60354;47.798;12.472;2023-04-21T12:24:35;17.40;58.89
72380;SHT30;60354;47.798;12.472;2023-04-21T12:27:01;17.51;58.92
72380;SHT30;60354;47.798;12.472;2023-04-21T12:29:27;17.41;61.36
72380;SHT30;60354;47.798;12.472;2023-04-21T12:31:53;17.43;61.50
72380;SHT30;60354;47.798;12.472;2023-04-21T12:34:19;17.73;61.95
72380;SHT30;60354;47.798;12.472;2023-04-21T12:36:44;17.64;59.44
72380;SHT30;60354;47.798;12.472;2023-04-21T12:39:10;17.78;56.85
72380;SHT30;60354;47.798;12.472;2023-04-21T12:41:36;17.78;58.44
72380;SHT30;60354;47.798;12.472;2023-04-21T12:44:01;17.68;57.64
72380;SHT30;60354;47.798;12.472;2023-04-21T12:46:27;17.61;59.27
72380;SHT30;60354;47.798;12.472;2023-04-21T12:48:52;17.73;60.56
72380;SHT30;60354;47.798;12.472;2023-04-21T12:51:21;17.74;59.30
72380;SHT30;60354;47.798;12.472;2023-04-21T12:53:46;17.95;61.03
72380;SHT30;60354;47.798;12.472;2023-04-21T12:56:12;17.82;60.06
72380;SHT30;60354;47.798;12.472;2023-04-21T12:58:37;18.18;61.19
72380;SHT30;60354;47.798;12.472;2023-04-21T13:01:04;18.13;60.48
72380;SHT30;60354;47.798;12.472;2023-04-21T13:03:29;18.29;60.25
72380;SHT30;60354;47.798;12.472;2023-04-21T13:05:56;18.37;60.26
72380;SHT30;60354;47.798;12.472;2023-04-21T13:08:21;18.37;59.71
72380;SHT30;60354;47.798;12.472;2023-04-21T13:10:47;18.21;59.87
72380;SHT30;60354;47.798;12.472;2023-04-21T13:13:12;18.42;59.85
72380;SHT30;60354;47.798;12.472;2023-04-21T13:15:38;18.45;59.66
72380;SHT30;60354;47.798;12.472;2023-04-21T13:18:03;18.43;58.15
72380;SHT30;60354;47.798;12.472;2023-04-21T13:20:29;18.36;59.55
72380;SHT30;60354;47.798;12.472;2023-04-21T13:22:55;18.55;58.47
72380;SHT30;60354;47.798;12.472;2023-04-21T13:25:20;18.76;56.62
72380;SHT30;60354;47.798;12.472;2023-04-21T13:27:46;18.73;57.06
72380;SHT30;60354;47.798;12.472;2023-04-21T13:30:13;18.84;57.35
72380;SHT30;60354;47.798;12.472;2023-04-21T13:32:39;19.10;56.36
72380;SHT30;60354;47.798;12.472;2023-04-21T13:35:05;19.11;54.26
72380;SHT30;60354;47.798;12.472;2023-04-21T13:37:37;18.98;55.69
72380;SHT30;60354;47.798;12.472;2023-04-21T13:40:04;19.07;53.36
72380;SHT30;60354;47.798;12.472;2023-04-21T13:42:30;19.28;53.68
72380;SHT30;60354;47.798;12.472;2023-04-21T13:44:56;19.28;55.97
72380;SHT30;60354;47.798;12.472;2023-04-21T13:47:22;19.42;54.86
72380;SHT30;60354;47.798;12.472;2023-04-21T13:49:48;19.25;55.66
72380;SHT30;60354;47.798;12.472;2023-04-21T13:52:15;19.12;53.85
72380;SHT30;60354;47.798;12.472;2023-04-21T13:54:41;19.18;55.57
72380;SHT30;60354;47.798;12.472;2023-04-21T13:57:06;18.78;54.22
72380;SHT30;60354;47.798;12.472;2023-04-21T13:59:33;18.42;53.41
72380;SHT30;60354;47.798;12.472;2023-04-21T14:01:58;18.35;54.99
72380;SHT30;60354;47.798;12.472;2023-04-21T14:04:24;18.25;56.52
72380;SHT30;60354;47.798;12.472;2023-04-21T14:06:49;18.19;57.62
72380;SHT30;60354;47.798;12.472;2023-04-21T14:09:15;18.06;57.58
72380;SHT30;60354;47.798;12.472;2023-04-21T14:11:41;18.09;57.81
72380;SHT30;60354;47.798;12.472;2023-04-21T14:14:06;18.13;59.17
72380;SHT30;60354;47.798;12.472;2023-04-21T14:16:32;18.21;57.51
72380;SHT30;60354;47.798;12.472;2023-04-21T14:18:57;18.18;57.63
72380;SHT30;60354;47.798;12.472;2023-04-21T14:21:23;18.22;57.89
72380;SHT30;60354;47.798;12.472;2023-04-21T14:23:48;18.26;56.78
72380;SHT30;60354;47.798;12.472;2023-04-21T14:26:14;18.29;57.22
72380;SHT30;60354;47.798;12.472;2023-04-21T14:28:39;18.21;58.65
72380;SHT30;60354;47.798;12.472;2023-04-21T14:31:05;18.06;60.62
72380;SHT30;60354;47.798;12.472;2023-04-21T14:33:31;18.01;60.09
72380;SHT30;60354;47.798;12.472;2023-04-21T14:35:58;17.87;61.63
72380;SHT30;60354;47.798;12.472;2023-04-21T14:38:23;17.64;61.13
72380;SHT30;60354;47.798;12.472;2023-04-21T14:40:50;17.60;60.94
72380;SHT30;60354;47.798;12.472;2023-04-21T14:43:19;17.47;60.89
72380;SHT30;60354;47.798;12.472;2023-04-21T14:45:45;17.33;60.35
72380;SHT30;60354;47.798;12.472;2023-04-21T14:48:10;17.33;59.57
72380;SHT30;60354;47.798;12.472;2023-04-21T14:50:41;17.27;59.18
72380;SHT30;60354;47.798;12.472;2023-04-21T14:53:06;17.15;59.46
72380;SHT30;60354;47.798;12.472;2023-04-21T14:55:32;17.07;58.23
72380;SHT30;60354;47.798;12.472;2023-04-21T14:57:58;16.99;59.68
72380;SHT30;60354;47.798;12.472;2023-04-21T15:00:24;17.02;60.39
72380;SHT30;60354;47.798;12.472;2023-04-21T15:02:50;16.76;60.41
72380;SHT30;60354;47.798;12.472;2023-04-21T15:05:16;16.73;61.36
72380;SHT30;60354;47.798;12.472;2023-04-21T15:07:43;16.45;59.26
72380;SHT30;60354;47.798;12.472;2023-04-21T15:10:08;16.25;60.00
72380;SHT30;60354;47.798;12.472;2023-04-21T15:12:35;16.21;60.80
72380;SHT30;60354;47.798;12.472;2023-04-21T15:15:01;16.29;59.66
72380;SHT30;60354;47.798;12.472;2023-04-21T15:17:26;16.28;57.34
72380;SHT30;60354;47.798;12.472;2023-04-21T15:19:52;16.24;56.32
72380;SHT30;60354;47.798;12.472;2023-04-21T15:22:17;16.18;58.29
72380;SHT30;60354;47.798;12.472;2023-04-21T15:24:44;16.16;59.45